sensor_id;sensor_type;location;lat;lon;timestamp;P1;durP1;ratioP1;P2;durP2;ratioP2
20649;SDS011;10484;48.736;9.332;2022-08-25T00:01:22;3.27;;;3.00;;
20649;SDS011;10484;48.736;9.332;2022-08-25T00:03:50;3.13;;;2.93;;
20649;SDS011;10484;48.736;9.332;2022-08-25T00:06:16;4.73;;;3.30;;
20649;SDS011;10484;48.736;9.332;2022-08-25T00:08:43;2.80;;;2.60;;
20649;SDS011;10484;48.736;9.332;2022-08-25T00:11:13;2.87;;;2.67;;
20649;SDS011;10484;48.736;9.332;2022-08-25T00:13:43;3.87;;;2.60;;
20649;SDS011;10484;48.736;9.332;2022-08-25T00:16:11;3.13;;;2.93;;
20649;SDS011;10484;48.736;9.332;2022-08-25T00:18:39;3.13;;;2.83;;
20649;SDS011;10484;48.736;9.332;2022-08-25T00:21:05;3.77;;;2.47;;
20649;SDS011;10484;48.736;9.332;2022-08-25T00:23:32;4.20;;;3.40;;
20649;SDS011;10484;48.736;9.332;2022-08-25T00:25:58;3.17;;;2.87;;
20649;SDS011;10484;48.736;9.332;2022-08-25T00:28:25;2.80;;;2.60;;
20649;SDS011;10484;48.736;9.332;2022-08-25T00:30:50;3.10;;;2.90;;
20649;SDS011;10484;48.736;9.332;2022-08-25T00:33:16;3.00;;;2.80;;
20649;SDS011;10484;48.736;9.332;2022-08-25T00:35:43;3.67;;;3.23;;
20649;SDS011;10484;48.736;9.332;2022-08-25T00:38:09;4.37;;;3.97;;
20649;SDS011;10484;48.736;9.332;2022-08-25T00:40:36;4.17;;;3.30;;
20649;SDS011;10484;48.736;9.332;2022-08-25T00:43:04;3.17;;;2.97;;
20649;SDS011;10484;48.736;9.332;2022-08-25T00:45:31;4.13;;;3.83;;
20649;SDS011;10484;48.736;9.332;2022-08-25T00:47:57;4.10;;;3.10;;
20649;SDS011;10484;48.736;9.332;2022-08-25T00:50:23;3.37;;;3.10;;
20649;SDS011;10484;48.736;9.332;2022-08-25T00:52:51;5.13;;;3.70;;
20649;SDS011;10484;48.736;9.332;2022-08-25T00:55:24;3.40;;;3.10;;
20649;SDS011;10484;48.736;9.332;2022-08-25T00:58:04;3.67;;;3.37;;
20649;SDS011;10484;48.736;9.332;2022-08-25T01:00:37;4.30;;;3.53;;
20649;SDS011;10484;48.736;9.332;2022-08-25T01:03:05;3.40;;;3.10;;
20649;SDS011;10484;48.736;9.332;2022-08-25T01:05:31;3.23;;;2.93;;
20649;SDS011;10484;48.736;9.332;2022-08-25T01:07:58;3.80;;;3.50;;
20649;SDS011;10484;48.736;9.332;2022-08-25T01:10:28;7.43;;;3.73;;
20649;SDS011;10484;48.736;9.332;2022-08-25T01:12:57;3.20;;;2.83;;
20649;SDS011;10484;48.736;9.332;2022-08-25T01:15:26;3.87;;;3.57;;
20649;SDS011;10484;48.736;9.332;2022-08-25T01:17:55;3.53;;;3.23;;
20649;SDS011;10484;48.736;9.332;2022-08-25T01:20:23;3.33;;;3.03;;
20649;SDS011;10484;48.736;9.332;2022-08-25T01:22:52;3.70;;;3.40;;
20649;SDS011;10484;48.736;9.332;2022-08-25T01:25:27;3.90;;;3.40;;
20649;SDS011;10484;48.736;9.332;2022-08-25T01:28:01;4.30;;;4.00;;
20649;SDS011;10484;48.736;9.332;2022-08-25T01:30:27;4.50;;;3.90;;
20649;SDS011;10484;48.736;9.332;2022-08-25T01:32:53;4.20;;;3.20;;
20649;SDS011;10484;48.736;9.332;2022-08-25T01:35:19;3.63;;;3.33;;
20649;SDS011;10484;48.736;9.332;2022-08-25T01:37:44;3.63;;;3.33;;
20649;SDS011;10484;48.736;9.332;2022-08-25T01:40:10;3.77;;;3.47;;
20649;SDS011;10484;48.736;9.332;2022-08-25T01:42:53;3.70;;;3.40;;
20649;SDS011;10484;48.736;9.332;2022-08-25T01:45:24;5.10;;;3.20;;
20649;SDS011;10484;48.736;9.332;2022-08-25T01:47:50;3.23;;;2.93;;
20649;SDS011;10484;48.736;9.332;2022-08-25T01:50:16;5.17;;;3.30;;
20649;SDS011;10484;48.736;9.332;2022-08-25T01:55:07;3.87;;;3.03;;
20649;SDS011;10484;48.736;9.332;2022-08-25T01:57:33;3.33;;;3.03;;
20649;SDS011;10484;48.736;9.332;2022-08-25T01:59:58;3.60;;;3.30;;
20649;SDS011;10484;48.736;9.332;2022-08-25T02:02:25;4.10;;;3.80;;
20649;SDS011;10484;48.736;9.332;2022-08-25T02:04:52;4.07;;;3.50;;
20649;SDS011;10484;48.736;9.332;2022-08-25T02:07:17;4.23;;;3.63;;
20649;SDS011;10484;48.736;9.332;2022-08-25T02:09:44;3.80;;;3.40;;
20649;SDS011;10484;48.736;9.332;2022-08-25T02:12:09;4.77;;;3.77;;
20649;SDS011;10484;48.736;9.332;2022-08-25T02:14:36;3.87;;;3.57;;
20649;SDS011;10484;48.736;9.332;2022-08-25T02:17:02;3.70;;;3.40;;
20649;SDS011;10484;48.736;9.332;2022-08-25T02:19:29;3.97;;;3.57;;
20649;SDS011;10484;48.736;9.332;2022-08-25T02:21:55;4.20;;;3.80;;
20649;SDS011;10484;48.736;9.332;2022-08-25T02:24:21;4.13;;;3.40;;
20649;SDS011;10484;48.736;9.332;2022-08-25T02:26:47;3.50;;;3.20;;
20649;SDS011;10484;48.736;9.332;2022-08-25T02:29:14;3.80;;;3.50;;
20649;SDS011;10484;48.736;9.332;2022-08-25T02:31:41;4.30;;;3.90;;
20649;SDS011;10484;48.736;9.332;2022-08-25T02:34:07;4.50;;;4.10;;
20649;SDS011;10484;48.736;9.332;2022-08-25T02:36:34;3.97;;;3.67;;
20649;SDS011;10484;48.736;9.332;2022-08-25T02:39:02;3.80;;;3.50;;
20649;SDS011;10484;48.736;9.332;2022-08-25T02:41:28;3.63;;;3.33;;
20649;SDS011;10484;48.736;9.332;2022-08-25T02:43:55;4.33;;;3.97;;
20649;SDS011;10484;48.736;9.332;2022-08-25T02:46:21;5.83;;;3.70;;
20649;SDS011;10484;48.736;9.332;2022-08-25T02:48:48;4.10;;;3.80;;
20649;SDS011;10484;48.736;9.332;2022-08-25T02:51:15;3.17;;;2.97;;
20649;SDS011;10484;48.736;9.332;2022-08-25T02:53:41;5.17;;;4.57;;
20649;SDS011;10484;48.736;9.332;2022-08-25T02:56:10;4.73;;;3.97;;
20649;SDS011;10484;48.736;9.332;2022-08-25T02:58:37;4.03;;;3.73;;
20649;SDS011;10484;48.736;9.332;2022-08-25T03:01:04;4.73;;;3.67;;
20649;SDS011;10484;48.736;9.332;2022-08-25T03:03:31;4.30;;;3.87;;
20649;SDS011;10484;48.736;9.332;2022-08-25T03:05:57;4.13;;;3.80;;
20649;SDS011;10484;48.736;9.332;2022-08-25T03:08:24;5.73;;;3.33;;
20649;SDS011;10484;48.736;9.332;2022-08-25T03:10:50;4.03;;;3.63;;
20649;SDS011;10484;48.736;9.332;2022-08-25T03:13:16;4.00;;;3.70;;
20649;SDS011;10484;48.736;9.332;2022-08-25T03:15:42;4.30;;;3.90;;
20649;SDS011;10484;48.736;9.332;2022-08-25T03:18:09;5.67;;;4.10;;
20649;SDS011;10484;48.736;9.332;2022-08-25T03:20:35;4.67;;;4.27;;
20649;SDS011;10484;48.736;9.332;2022-08-25T03:23:02;4.77;;;4.27;;
20649;SDS011;10484;48.736;9.332;2022-08-25T03:25:29;4.70;;;4.30;;
20649;SDS011;10484;48.736;9.332;2022-08-25T03:28:13;3.87;;;3.57;;
20649;SDS011;10484;48.736;9.332;2022-08-25T03:30:40;4.70;;;3.83;;
20649;SDS011;10484;48.736;9.332;2022-08-25T03:33:06;4.37;;;3.80;;
20649;SDS011;10484;48.736;9.332;2022-08-25T03:35:32;4.50;;;3.87;;
20649;SDS011;10484;48.736;9.332;2022-08-25T03:37:58;4.37;;;3.97;;
20649;SDS011;10484;48.736;9.332;2022-08-25T03:40:24;4.40;;;4.00;;
20649;SDS011;10484;48.736;9.332;2022-08-25T03:42:50;5.33;;;4.23;;
20649;SDS011;10484;48.736;9.332;2022-08-25T03:45:16;4.47;;;3.63;;
20649;SDS011;10484;48.736;9.332;2022-08-25T03:47:45;4.70;;;4.30;;
20649;SDS011;10484;48.736;9.332;2022-08-25T03:50:12;5.90;;;4.30;;
20649;SDS011;10484;48.736;9.332;2022-08-25T03:52:39;5.83;;;4.20;;
20649;SDS011;10484;48.736;9.332;2022-08-25T03:55:07;4.90;;;4.40;;
20649;SDS011;10484;48.736;9.332;2022-08-25T03:57:35;4.83;;;4.30;;
20649;SDS011;10484;48.736;9.332;2022-08-25T04:00:01;4.27;;;3.97;;
20649;SDS011;10484;48.736;9.332;2022-08-25T04:02:30;4.83;;;4.27;;
20649;SDS011;10484;48.736;9.332;2022-08-25T04:04:57;4.73;;;4.30;;
20649;SDS011;10484;48.736;9.332;2022-08-25T04:07:23;6.53;;;4.20;;
20649;SDS011;10484;48.736;9.332;2022-08-25T04:09:49;4.20;;;3.80;;
20649;SDS011;10484;48.736;9.332;2022-08-25T04:12:14;5.20;;;4.80;;
20649;SDS011;10484;48.736;9.332;2022-08-25T04:14:40;5.07;;;4.00;;
20649;SDS011;10484;48.736;9.332;2022-08-25T04:17:06;4.80;;;4.30;;
20649;SDS011;10484;48.736;9.332;2022-08-25T04:19:32;5.50;;;5.00;;
20649;SDS011;10484;48.736;9.332;2022-08-25T04:21:58;6.77;;;4.67;;
20649;SDS011;10484;48.736;9.332;2022-08-25T04:24:24;5.03;;;4.63;;
20649;SDS011;10484;48.736;9.332;2022-08-25T04:26:49;4.27;;;3.87;;
20649;SDS011;10484;48.736;9.332;2022-08-25T04:29:17;6.00;;;5.40;;
20649;SDS011;10484;48.736;9.332;2022-08-25T04:31:45;4.40;;;4.00;;
20649;SDS011;10484;48.736;9.332;2022-08-25T04:34:14;4.67;;;4.27;;
20649;SDS011;10484;48.736;9.332;2022-08-25T04:36:41;5.10;;;4.57;;
20649;SDS011;10484;48.736;9.332;2022-08-25T04:39:07;6.17;;;5.07;;
20649;SDS011;10484;48.736;9.332;2022-08-25T04:41:33;4.90;;;4.50;;
20649;SDS011;10484;48.736;9.332;2022-08-25T04:43:59;6.07;;;4.53;;
20649;SDS011;10484;48.736;9.332;2022-08-25T04:46:26;5.00;;;4.50;;
20649;SDS011;10484;48.736;9.332;2022-08-25T04:48:54;6.23;;;5.30;;
20649;SDS011;10484;48.736;9.332;2022-08-25T04:51:22;6.40;;;4.70;;
20649;SDS011;10484;48.736;9.332;2022-08-25T04:54:08;5.90;;;4.77;;
20649;SDS011;10484;48.736;9.332;2022-08-25T04:56:36;5.60;;;4.97;;
20649;SDS011;10484;48.736;9.332;2022-08-25T04:59:06;5.37;;;4.83;;
20649;SDS011;10484;48.736;9.332;2022-08-25T05:01:34;6.33;;;4.83;;
20649;SDS011;10484;48.736;9.332;2022-08-25T05:04:02;5.80;;;4.80;;
20649;SDS011;10484;48.736;9.332;2022-08-25T05:06:29;4.77;;;4.37;;
20649;SDS011;10484;48.736;9.332;2022-08-25T05:08:56;6.10;;;5.50;;
20649;SDS011;10484;48.736;9.332;2022-08-25T05:11:23;5.27;;;4.50;;
20649;SDS011;10484;48.736;9.332;2022-08-25T05:13:51;5.60;;;5.00;;
20649;SDS011;10484;48.736;9.332;2022-08-25T05:16:18;6.37;;;5.80;;
20649;SDS011;10484;48.736;9.332;2022-08-25T05:18:46;6.30;;;5.10;;
20649;SDS011;10484;48.736;9.332;2022-08-25T05:21:13;5.80;;;5.23;;
20649;SDS011;10484;48.736;9.332;2022-08-25T05:23:41;5.90;;;5.40;;
20649;SDS011;10484;48.736;9.332;2022-08-25T05:26:10;5.80;;;5.30;;
20649;SDS011;10484;48.736;9.332;2022-08-25T05:28:38;5.73;;;5.20;;
20649;SDS011;10484;48.736;9.332;2022-08-25T05:31:05;5.53;;;5.03;;
20649;SDS011;10484;48.736;9.332;2022-08-25T05:33:33;5.97;;;5.37;;
20649;SDS011;10484;48.736;9.332;2022-08-25T05:35:59;8.53;;;4.90;;
20649;SDS011;10484;48.736;9.332;2022-08-25T05:38:25;5.87;;;5.37;;
20649;SDS011;10484;48.736;9.332;2022-08-25T05:41:01;6.43;;;5.87;;
20649;SDS011;10484;48.736;9.332;2022-08-25T05:43:30;6.50;;;5.80;;
20649;SDS011;10484;48.736;9.332;2022-08-25T05:45:56;6.57;;;5.93;;
20649;SDS011;10484;48.736;9.332;2022-08-25T05:48:23;8.30;;;6.70;;
20649;SDS011;10484;48.736;9.332;2022-08-25T05:50:53;6.70;;;6.03;;
20649;SDS011;10484;48.736;9.332;2022-08-25T05:53:21;7.97;;;6.37;;
20649;SDS011;10484;48.736;9.332;2022-08-25T05:55:47;9.00;;;6.30;;
20649;SDS011;10484;48.736;9.332;2022-08-25T05:58:15;6.60;;;6.00;;
20649;SDS011;10484;48.736;9.332;2022-08-25T06:00:40;10.50;;;7.07;;
20649;SDS011;10484;48.736;9.332;2022-08-25T06:03:06;8.53;;;6.37;;
20649;SDS011;10484;48.736;9.332;2022-08-25T06:05:32;6.90;;;6.30;;
20649;SDS011;10484;48.736;9.332;2022-08-25T06:07:58;7.67;;;7.00;;
20649;SDS011;10484;48.736;9.332;2022-08-25T06:10:24;9.27;;;8.37;;
20649;SDS011;10484;48.736;9.332;2022-08-25T06:12:50;8.70;;;7.87;;
20649;SDS011;10484;48.736;9.332;2022-08-25T06:15:16;10.50;;;8.40;;
20649;SDS011;10484;48.736;9.332;2022-08-25T06:17:44;11.63;;;8.53;;
20649;SDS011;10484;48.736;9.332;2022-08-25T06:20:14;8.30;;;7.50;;
20649;SDS011;10484;48.736;9.332;2022-08-25T06:22:42;10.27;;;8.70;;
20649;SDS011;10484;48.736;9.332;2022-08-25T06:25:09;12.20;;;8.33;;
20649;SDS011;10484;48.736;9.332;2022-08-25T06:27:36;9.97;;;8.33;;
20649;SDS011;10484;48.736;9.332;2022-08-25T06:30:03;10.60;;;8.73;;
20649;SDS011;10484;48.736;9.332;2022-08-25T06:32:31;12.37;;;9.10;;
20649;SDS011;10484;48.736;9.332;2022-08-25T06:34:59;10.77;;;9.17;;
20649;SDS011;10484;48.736;9.332;2022-08-25T06:37:25;13.13;;;9.63;;
20649;SDS011;10484;48.736;9.332;2022-08-25T06:39:51;10.90;;;8.73;;
20649;SDS011;10484;48.736;9.332;2022-08-25T06:42:17;9.90;;;8.60;;
20649;SDS011;10484;48.736;9.332;2022-08-25T06:44:43;10.23;;;8.73;;
20649;SDS011;10484;48.736;9.332;2022-08-25T06:47:09;10.90;;;9.60;;
20649;SDS011;10484;48.736;9.332;2022-08-25T06:49:34;9.50;;;8.43;;
20649;SDS011;10484;48.736;9.332;2022-08-25T06:52:00;11.03;;;9.80;;
20649;SDS011;10484;48.736;9.332;2022-08-25T06:54:26;12.60;;;8.70;;
20649;SDS011;10484;48.736;9.332;2022-08-25T06:56:52;11.50;;;8.50;;
20649;SDS011;10484;48.736;9.332;2022-08-25T06:59:18;12.17;;;9.20;;
20649;SDS011;10484;48.736;9.332;2022-08-25T07:01:43;9.80;;;8.80;;
20649;SDS011;10484;48.736;9.332;2022-08-25T07:04:09;11.80;;;10.07;;
20649;SDS011;10484;48.736;9.332;2022-08-25T07:06:35;10.20;;;8.80;;
20649;SDS011;10484;48.736;9.332;2022-08-25T07:09:03;11.77;;;7.63;;
20649;SDS011;10484;48.736;9.332;2022-08-25T07:11:30;12.10;;;8.90;;
20649;SDS011;10484;48.736;9.332;2022-08-25T07:13:58;9.17;;;8.10;;
20649;SDS011;10484;48.736;9.332;2022-08-25T07:16:28;9.50;;;8.50;;
20649;SDS011;10484;48.736;9.332;2022-08-25T07:18:55;11.13;;;8.97;;
20649;SDS011;10484;48.736;9.332;2022-08-25T07:21:22;9.67;;;6.93;;
20649;SDS011;10484;48.736;9.332;2022-08-25T07:23:48;8.57;;;7.67;;
20649;SDS011;10484;48.736;9.332;2022-08-25T07:26:15;8.50;;;7.30;;
20649;SDS011;10484;48.736;9.332;2022-08-25T07:28:46;8.27;;;7.47;;
20649;SDS011;10484;48.736;9.332;2022-08-25T07:31:12;9.20;;;6.97;;
20649;SDS011;10484;48.736;9.332;2022-08-25T07:33:38;9.47;;;8.47;;
20649;SDS011;10484;48.736;9.332;2022-08-25T07:36:24;10.30;;;7.40;;
20649;SDS011;10484;48.736;9.332;2022-08-25T07:38:51;7.87;;;6.93;;
20649;SDS011;10484;48.736;9.332;2022-08-25T07:41:17;8.40;;;7.60;;
20649;SDS011;10484;48.736;9.332;2022-08-25T07:43:42;7.87;;;6.00;;
20649;SDS011;10484;48.736;9.332;2022-08-25T07:46:09;8.17;;;7.37;;
20649;SDS011;10484;48.736;9.332;2022-08-25T07:48:35;8.67;;;7.53;;
20649;SDS011;10484;48.736;9.332;2022-08-25T07:51:05;7.70;;;6.90;;
20649;SDS011;10484;48.736;9.332;2022-08-25T07:53:36;7.70;;;7.00;;
20649;SDS011;10484;48.736;9.332;2022-08-25T07:56:08;8.07;;;7.10;;
20649;SDS011;10484;48.736;9.332;2022-08-25T07:58:35;7.83;;;7.03;;
20649;SDS011;10484;48.736;9.332;2022-08-25T08:01:01;7.20;;;6.50;;
20649;SDS011;10484;48.736;9.332;2022-08-25T08:03:26;7.10;;;6.27;;
20649;SDS011;10484;48.736;9.332;2022-08-25T08:05:53;7.50;;;6.77;;
20649;SDS011;10484;48.736;9.332;2022-08-25T08:08:20;8.73;;;7.83;;
20649;SDS011;10484;48.736;9.332;2022-08-25T08:10:46;8.03;;;7.23;;
20649;SDS011;10484;48.736;9.332;2022-08-25T08:13:12;9.93;;;7.20;;
20649;SDS011;10484;48.736;9.332;2022-08-25T08:15:40;7.70;;;6.90;;
20649;SDS011;10484;48.736;9.332;2022-08-25T08:18:07;6.67;;;6.03;;
20649;SDS011;10484;48.736;9.332;2022-08-25T08:20:33;6.90;;;6.20;;
20649;SDS011;10484;48.736;9.332;2022-08-25T08:22:59;6.90;;;6.23;;
20649;SDS011;10484;48.736;9.332;2022-08-25T08:25:25;8.60;;;6.47;;
20649;SDS011;10484;48.736;9.332;2022-08-25T08:27:50;9.13;;;6.33;;
20649;SDS011;10484;48.736;9.332;2022-08-25T08:30:16;7.47;;;6.53;;
20649;SDS011;10484;48.736;9.332;2022-08-25T08:32:42;6.63;;;5.87;;
20649;SDS011;10484;48.736;9.332;2022-08-25T08:35:08;18.40;;;7.83;;
20649;SDS011;10484;48.736;9.332;2022-08-25T08:37:35;6.43;;;5.73;;
20649;SDS011;10484;48.736;9.332;2022-08-25T08:40:06;6.00;;;5.40;;
20649;SDS011;10484;48.736;9.332;2022-08-25T08:51:21;7.70;;;5.17;;
20649;SDS011;10484;48.736;9.332;2022-08-25T08:53:58;6.53;;;5.93;;
20649;SDS011;10484;48.736;9.332;2022-08-25T08:56:41;8.20;;;5.17;;
20649;SDS011;10484;48.736;9.332;2022-08-25T08:59:22;5.80;;;5.30;;
20649;SDS011;10484;48.736;9.332;2022-08-25T09:01:52;6.03;;;5.33;;
20649;SDS011;10484;48.736;9.332;2022-08-25T09:07:18;5.50;;;5.10;;
20649;SDS011;10484;48.736;9.332;2022-08-25T09:09:51;5.77;;;5.27;;
20649;SDS011;10484;48.736;9.332;2022-08-25T09:17:50;6.47;;;5.97;;
20649;SDS011;10484;48.736;9.332;2022-08-25T09:20:45;6.40;;;5.77;;
20649;SDS011;10484;48.736;9.332;2022-08-25T09:33:45;4.77;;;4.30;;
20649;SDS011;10484;48.736;9.332;2022-08-25T09:36:10;4.60;;;4.20;;
20649;SDS011;10484;48.736;9.332;2022-08-25T09:38:36;4.27;;;3.90;;
20649;SDS011;10484;48.736;9.332;2022-08-25T09:41:03;7.00;;;4.40;;
20649;SDS011;10484;48.736;9.332;2022-08-25T09:46:15;4.60;;;4.20;;
20649;SDS011;10484;48.736;9.332;2022-08-25T09:48:49;4.67;;;4.20;;
20649;SDS011;10484;48.736;9.332;2022-08-25T09:51:33;4.90;;;4.50;;
20649;SDS011;10484;48.736;9.332;2022-08-25T10:01:53;6.50;;;4.70;;
20649;SDS011;10484;48.736;9.332;2022-08-25T10:04:29;6.40;;;4.57;;
20649;SDS011;10484;48.736;9.332;2022-08-25T10:06:56;5.90;;;5.27;;
20649;SDS011;10484;48.736;9.332;2022-08-25T10:09:26;6.43;;;4.57;;
20649;SDS011;10484;48.736;9.332;2022-08-25T10:11:55;4.80;;;4.40;;
20649;SDS011;10484;48.736;9.332;2022-08-25T10:14:33;5.43;;;4.90;;
20649;SDS011;10484;48.736;9.332;2022-08-25T10:19:51;5.17;;;4.67;;
20649;SDS011;10484;48.736;9.332;2022-08-25T10:22:22;7.13;;;4.83;;
20649;SDS011;10484;48.736;9.332;2022-08-25T10:24:56;5.33;;;4.83;;
20649;SDS011;10484;48.736;9.332;2022-08-25T10:35:26;4.73;;;4.30;;
20649;SDS011;10484;48.736;9.332;2022-08-25T10:49:45;3.83;;;3.53;;
20649;SDS011;10484;48.736;9.332;2022-08-25T10:52:17;4.23;;;3.83;;
20649;SDS011;10484;48.736;9.332;2022-08-25T10:55:15;5.20;;;3.77;;
20649;SDS011;10484;48.736;9.332;2022-08-25T10:58:13;4.80;;;4.40;;
20649;SDS011;10484;48.736;9.332;2022-08-25T11:01:05;4.50;;;4.10;;
20649;SDS011;10484;48.736;9.332;2022-08-25T11:06:50;4.30;;;3.90;;
20649;SDS011;10484;48.736;9.332;2022-08-25T11:09:28;5.63;;;3.90;;
20649;SDS011;10484;48.736;9.332;2022-08-25T11:12:02;7.53;;;4.20;;
20649;SDS011;10484;48.736;9.332;2022-08-25T11:14:39;4.00;;;3.60;;
20649;SDS011;10484;48.736;9.332;2022-08-25T11:19:56;4.80;;;4.40;;
20649;SDS011;10484;48.736;9.332;2022-08-25T11:28:02;5.77;;;3.83;;
20649;SDS011;10484;48.736;9.332;2022-08-25T11:30:48;4.03;;;3.50;;
20649;SDS011;10484;48.736;9.332;2022-08-25T11:33:16;5.30;;;3.50;;
20649;SDS011;10484;48.736;9.332;2022-08-25T11:35:46;3.57;;;3.27;;
20649;SDS011;10484;48.736;9.332;2022-08-25T11:38:37;4.10;;;3.80;;
20649;SDS011;10484;48.736;9.332;2022-08-25T11:50:00;3.57;;;2.80;;
20649;SDS011;10484;48.736;9.332;2022-08-25T11:55:17;4.70;;;4.30;;
20649;SDS011;10484;48.736;9.332;2022-08-25T11:57:47;3.63;;;3.43;;
20649;SDS011;10484;48.736;9.332;2022-08-25T12:02:59;4.10;;;3.70;;
20649;SDS011;10484;48.736;9.332;2022-08-25T12:06:17;3.97;;;3.40;;
20649;SDS011;10484;48.736;9.332;2022-08-25T12:08:53;3.10;;;2.90;;
20649;SDS011;10484;48.736;9.332;2022-08-25T12:11:44;3.60;;;3.30;;
20649;SDS011;10484;48.736;9.332;2022-08-25T12:21:49;3.30;;;3.10;;
20649;SDS011;10484;48.736;9.332;2022-08-25T12:24:16;3.47;;;3.27;;
20649;SDS011;10484;48.736;9.332;2022-08-25T12:27:19;4.70;;;3.20;;
20649;SDS011;10484;48.736;9.332;2022-08-25T12:29:55;3.63;;;3.43;;
20649;SDS011;10484;48.736;9.332;2022-08-25T12:38:04;4.03;;;3.67;;
20649;SDS011;10484;48.736;9.332;2022-08-25T12:40:36;3.57;;;3.27;;
20649;SDS011;10484;48.736;9.332;2022-08-25T12:45:49;3.40;;;3.20;;
20649;SDS011;10484;48.736;9.332;2022-08-25T12:50:59;3.23;;;3.03;;
20649;SDS011;10484;48.736;9.332;2022-08-25T12:58:49;3.33;;;3.13;;
20649;SDS011;10484;48.736;9.332;2022-08-25T13:10:32;3.97;;;3.60;;
20649;SDS011;10484;48.736;9.332;2022-08-25T13:15:58;4.30;;;3.60;;
20649;SDS011;10484;48.736;9.332;2022-08-25T13:18:27;3.43;;;3.10;;
20649;SDS011;10484;48.736;9.332;2022-08-25T13:21:16;3.20;;;2.83;;
20649;SDS011;10484;48.736;9.332;2022-08-25T13:23:53;3.97;;;3.60;;
20649;SDS011;10484;48.736;9.332;2022-08-25T13:26:22;4.87;;;3.17;;
20649;SDS011;10484;48.736;9.332;2022-08-25T13:28:57;5.40;;;3.50;;
20649;SDS011;10484;48.736;9.332;2022-08-25T13:31:37;6.60;;;3.80;;
20649;SDS011;10484;48.736;9.332;2022-08-25T13:34:18;3.30;;;3.10;;
20649;SDS011;10484;48.736;9.332;2022-08-25T13:36:46;3.50;;;3.20;;
20649;SDS011;10484;48.736;9.332;2022-08-25T13:39:31;3.40;;;3.10;;
20649;SDS011;10484;48.736;9.332;2022-08-25T13:41:58;3.13;;;2.93;;
20649;SDS011;10484;48.736;9.332;2022-08-25T13:44:26;3.97;;;3.70;;
20649;SDS011;10484;48.736;9.332;2022-08-25T13:47:08;4.00;;;2.90;;
20649;SDS011;10484;48.736;9.332;2022-08-25T13:49:37;3.30;;;3.10;;
20649;SDS011;10484;48.736;9.332;2022-08-25T13:52:06;5.50;;;3.40;;
20649;SDS011;10484;48.736;9.332;2022-08-25T13:54:56;3.50;;;3.30;;
20649;SDS011;10484;48.736;9.332;2022-08-25T13:57:24;4.40;;;3.50;;
20649;SDS011;10484;48.736;9.332;2022-08-25T13:59:53;3.13;;;2.93;;
20649;SDS011;10484;48.736;9.332;2022-08-25T14:05:05;3.60;;;3.30;;
20649;SDS011;10484;48.736;9.332;2022-08-25T14:07:31;3.70;;;3.40;;
20649;SDS011;10484;48.736;9.332;2022-08-25T14:13:27;4.00;;;3.67;;
20649;SDS011;10484;48.736;9.332;2022-08-25T14:16:04;3.90;;;3.57;;
20649;SDS011;10484;48.736;9.332;2022-08-25T14:18:38;3.17;;;2.97;;
20649;SDS011;10484;48.736;9.332;2022-08-25T14:21:10;3.63;;;3.30;;
20649;SDS011;10484;48.736;9.332;2022-08-25T14:23:36;3.50;;;3.30;;
20649;SDS011;10484;48.736;9.332;2022-08-25T14:26:03;4.20;;;3.90;;
20649;SDS011;10484;48.736;9.332;2022-08-25T14:28:29;5.67;;;3.30;;
20649;SDS011;10484;48.736;9.332;2022-08-25T14:31:00;5.20;;;3.10;;
20649;SDS011;10484;48.736;9.332;2022-08-25T14:33:33;4.00;;;3.17;;
20649;SDS011;10484;48.736;9.332;2022-08-25T14:36:03;3.97;;;3.67;;
20649;SDS011;10484;48.736;9.332;2022-08-25T14:38:30;3.30;;;3.10;;
20649;SDS011;10484;48.736;9.332;2022-08-25T14:40:56;3.30;;;3.00;;
20649;SDS011;10484;48.736;9.332;2022-08-25T14:43:21;3.40;;;3.10;;
20649;SDS011;10484;48.736;9.332;2022-08-25T14:45:47;3.53;;;3.23;;
20649;SDS011;10484;48.736;9.332;2022-08-25T14:48:20;3.57;;;3.37;;
20649;SDS011;10484;48.736;9.332;2022-08-25T14:50:51;3.67;;;3.37;;
20649;SDS011;10484;48.736;9.332;2022-08-25T14:53:19;3.83;;;3.53;;
20649;SDS011;10484;48.736;9.332;2022-08-25T14:55:44;3.90;;;3.50;;
20649;SDS011;10484;48.736;9.332;2022-08-25T14:58:10;3.30;;;3.10;;
20649;SDS011;10484;48.736;9.332;2022-08-25T15:00:39;3.53;;;3.20;;
20649;SDS011;10484;48.736;9.332;2022-08-25T15:03:10;3.80;;;2.90;;
20649;SDS011;10484;48.736;9.332;2022-08-25T15:05:38;3.27;;;3.00;;
20649;SDS011;10484;48.736;9.332;2022-08-25T15:08:04;4.53;;;3.20;;
20649;SDS011;10484;48.736;9.332;2022-08-25T15:10:49;3.57;;;3.00;;
20649;SDS011;10484;48.736;9.332;2022-08-25T15:13:15;3.20;;;2.90;;
20649;SDS011;10484;48.736;9.332;2022-08-25T15:15:42;3.30;;;3.10;;
20649;SDS011;10484;48.736;9.332;2022-08-25T15:18:09;3.00;;;2.80;;
20649;SDS011;10484;48.736;9.332;2022-08-25T15:20:34;3.50;;;2.90;;
20649;SDS011;10484;48.736;9.332;2022-08-25T15:23:00;3.20;;;3.00;;
20649;SDS011;10484;48.736;9.332;2022-08-25T15:25:26;3.30;;;3.10;;
20649;SDS011;10484;48.736;9.332;2022-08-25T15:27:53;3.60;;;3.30;;
20649;SDS011;10484;48.736;9.332;2022-08-25T15:30:19;3.67;;;3.37;;
20649;SDS011;10484;48.736;9.332;2022-08-25T15:32:45;4.43;;;4.03;;
20649;SDS011;10484;48.736;9.332;2022-08-25T15:35:11;3.17;;;2.93;;
20649;SDS011;10484;48.736;9.332;2022-08-25T15:37:37;3.17;;;2.97;;
20649;SDS011;10484;48.736;9.332;2022-08-25T15:40:04;3.77;;;3.47;;
20649;SDS011;10484;48.736;9.332;2022-08-25T15:42:30;3.20;;;2.90;;
20649;SDS011;10484;48.736;9.332;2022-08-25T15:44:56;3.60;;;3.30;;
20649;SDS011;10484;48.736;9.332;2022-08-25T15:47:22;3.50;;;3.20;;
20649;SDS011;10484;48.736;9.332;2022-08-25T15:49:48;3.40;;;3.20;;
20649;SDS011;10484;48.736;9.332;2022-08-25T15:52:14;3.50;;;3.10;;
20649;SDS011;10484;48.736;9.332;2022-08-25T15:54:40;3.40;;;3.10;;
20649;SDS011;10484;48.736;9.332;2022-08-25T15:57:06;3.70;;;3.20;;
20649;SDS011;10484;48.736;9.332;2022-08-25T15:59:32;3.57;;;3.37;;
20649;SDS011;10484;48.736;9.332;2022-08-25T16:01:57;3.10;;;2.90;;
20649;SDS011;10484;48.736;9.332;2022-08-25T16:04:25;3.37;;;3.17;;
20649;SDS011;10484;48.736;9.332;2022-08-25T16:06:53;3.07;;;2.87;;
20649;SDS011;10484;48.736;9.332;2022-08-25T16:09:19;3.47;;;2.80;;
20649;SDS011;10484;48.736;9.332;2022-08-25T16:11:45;3.10;;;2.90;;
20649;SDS011;10484;48.736;9.332;2022-08-25T16:14:12;3.83;;;3.43;;
20649;SDS011;10484;48.736;9.332;2022-08-25T16:16:38;3.60;;;3.30;;
20649;SDS011;10484;48.736;9.332;2022-08-25T16:19:05;4.73;;;3.13;;
20649;SDS011;10484;48.736;9.332;2022-08-25T16:21:31;3.57;;;3.27;;
20649;SDS011;10484;48.736;9.332;2022-08-25T16:24:00;3.30;;;3.00;;
20649;SDS011;10484;48.736;9.332;2022-08-25T16:26:28;4.60;;;3.30;;
20649;SDS011;10484;48.736;9.332;2022-08-25T16:28:54;3.50;;;3.00;;
20649;SDS011;10484;48.736;9.332;2022-08-25T16:31:20;3.70;;;3.40;;
20649;SDS011;10484;48.736;9.332;2022-08-25T16:33:46;3.90;;;3.50;;
20649;SDS011;10484;48.736;9.332;2022-08-25T16:36:14;3.20;;;3.00;;
20649;SDS011;10484;48.736;9.332;2022-08-25T16:38:42;3.30;;;3.10;;
20649;SDS011;10484;48.736;9.332;2022-08-25T16:41:09;3.70;;;3.40;;
20649;SDS011;10484;48.736;9.332;2022-08-25T16:43:37;4.20;;;3.13;;
20649;SDS011;10484;48.736;9.332;2022-08-25T16:46:04;5.40;;;3.53;;
20649;SDS011;10484;48.736;9.332;2022-08-25T16:48:32;3.33;;;2.93;;
20649;SDS011;10484;48.736;9.332;2022-08-25T16:50:57;4.43;;;4.13;;
20649;SDS011;10484;48.736;9.332;2022-08-25T16:53:23;4.03;;;3.73;;
20649;SDS011;10484;48.736;9.332;2022-08-25T16:56:08;3.40;;;3.10;;
20649;SDS011;10484;48.736;9.332;2022-08-25T16:58:34;3.10;;;2.87;;
20649;SDS011;10484;48.736;9.332;2022-08-25T17:03:35;5.20;;;3.30;;
20649;SDS011;10484;48.736;9.332;2022-08-25T17:06:01;3.47;;;3.17;;
20649;SDS011;10484;48.736;9.332;2022-08-25T17:08:26;3.23;;;3.03;;
20649;SDS011;10484;48.736;9.332;2022-08-25T17:10:53;3.63;;;3.10;;
20649;SDS011;10484;48.736;9.332;2022-08-25T17:13:26;3.60;;;2.93;;